• Join FlightAware (Why Join?)
  • Login
  • US Flag 
01:46AM EDT


 

Airport Tracker/Info


-or-


 

Live Flight TrackerFlight Track Log ✈ AMX205 ✈ 30-Jul-2013 ✈ MMTC / TRC - MMMX / MEX

Flight Track Log - Related Links

Times and Time Zones

All times are in EDT time to prevent confusion due to time zone crossing. See the AMX205 flight status page for this flight to view local times or setup timezone preferences in your user account.

Time Position Orientation Groundspeed Altitude Reporting Facility
EDT Latitude Longitude Course Direction KTS MPH feet Rate Location/Type
07:31AM 25.1401 -103.0915 146° Southeast  Level Estimated
07:32AM 25.0544 -103.0279 146° Southeast  Level Estimated
07:33AM 24.9687 -102.9645 146° Southeast  Level Estimated
07:34AM 24.8829 -102.9011 146° Southeast  Level Estimated
07:35AM 24.7971 -102.8378 146° Southeast  Level Estimated
07:36AM 24.7113 -102.7747 146° Southeast  Level Estimated
07:37AM 24.6254 -102.7115 146° Southeast  Level Estimated
07:38AM 24.5396 -102.6485 146° Southeast  Level Estimated
07:39AM 24.4537 -102.5856 146° Southeast  Level Estimated
07:40AM 24.3677 -102.5227 146° Southeast  Level Estimated
07:41AM 24.2818 -102.4600 146° Southeast  Level Estimated
07:42AM 24.1958 -102.3973 146° Southeast  Level Estimated
07:43AM 24.1098 -102.3347 146° Southeast  Level Estimated
07:44AM 24.0238 -102.2722 146° Southeast  Level Estimated
07:45AM 23.9377 -102.2098 146° Southeast  Level Estimated
07:46AM 23.8517 -102.1474 146° Southeast  Level Estimated
07:47AM 23.7656 -102.0852 147° Southeast  Level Estimated
07:48AM 23.6794 -102.0230 147° Southeast  Level Estimated
07:49AM 23.5933 -101.9609 147° Southeast  Level Estimated
07:50AM 23.5071 -101.8989 147° Southeast  Level Estimated
07:51AM 23.4209 -101.8370 147° Southeast  Level Estimated
07:52AM 23.3347 -101.7751 147° Southeast  Level Estimated
07:53AM 23.2484 -101.7133 147° Southeast  Level Estimated
07:54AM 23.1621 -101.6516 147° Southeast  Level Estimated
07:55AM 23.0758 -101.5900 147° Southeast  Level Estimated
07:56AM 22.9895 -101.5285 147° Southeast  Level Estimated
07:57AM 22.9032 -101.4670 147° Southeast  Level Estimated
07:58AM 22.8168 -101.4057 147° Southeast  Level Estimated
07:59AM 22.7304 -101.3444 147° Southeast  Level Estimated
08:00AM 22.6440 -101.2831 147° Southeast  Level Estimated
08:01AM 22.5576 -101.2220 147° Southeast  Level Estimated
08:02AM 22.4711 -101.1609 147° Southeast  Level Estimated
08:03AM 22.3846 -101.0999 147° Southeast  Level Estimated
08:04AM 22.2981 -101.0390 147° Southeast  Level Estimated
08:05AM 22.2116 -100.9782 147° Southeast  Level Estimated
08:06AM 22.1250 -100.9174 147° Southeast  Level Estimated
08:07AM 22.0384 -100.8567 147° Southeast  Level Estimated
08:08AM 21.9518 -100.7961 147° Southeast  Level Estimated
08:09AM 21.8652 -100.7355 147° Southeast  Level Estimated
08:10AM 21.7786 -100.6751 147° Southeast  Level Estimated
08:11AM 21.6919 -100.6147 147° Southeast  Level Estimated
08:12AM 21.6052 -100.5544 147° Southeast  Level Estimated
08:13AM 21.5185 -100.4941 147° Southeast  Level Estimated
08:14AM 21.4318 -100.4339 147° Southeast  Level Estimated
08:15AM 21.3450 -100.3738 147° Southeast  Level Estimated
08:16AM 21.2582 -100.3138 147° Southeast  Level Estimated
08:17AM 21.1715 -100.2538 147° Southeast  Level Estimated
08:18AM 21.0846 -100.1939 147° Southeast  Level Estimated
08:19AM 20.9978 -100.1341 147° Southeast  Level Estimated
08:20AM 20.9109 -100.0743 147° Southeast  Level Estimated
08:21AM 20.8241 -100.0146 147° Southeast  Level Estimated
08:22AM 20.7372 -99.9550 147° Southeast  Level Estimated
08:23AM 20.6502 -99.8954 147° Southeast  Level Estimated
08:24AM 20.5633 -99.8360 147° Southeast  Level Estimated
08:25AM 20.4763 -99.7766 147° Southeast  Level Estimated
08:26AM 20.3894 -99.7172 147° Southeast  Level Estimated
08:27AM 20.3024 -99.6579 147° Southeast  Level Estimated
08:28AM 20.2153 -99.5987 147° Southeast  Level Estimated
08:29AM 20.1283 -99.5396 147° Southeast  Level Estimated
08:30AM 20.0412 -99.4805 147° Southeast  Level Estimated
08:31AM 19.9542 -99.4215 147° Southeast  Level Estimated
08:32AM 19.8671 -99.3625 148° Southeast  Level Estimated
08:33AM 19.7799 -99.3036 148° Southeast  Level Estimated
08:34AM 19.6928 -99.2448 148° Southeast  Level Estimated
08:35AM 19.6056 -99.1860 148° Southeast  Level Estimated
08:36AM 19.5185 -99.1273 148° Southeast  Level Estimated
08:37AM 19.4363 -99.0721 148° Southeast  Level Estimated
08:38AM 19.4363 -99.0721 43° Northeast  Level Estimated
08:39AM 19.4363 -99.0721 43° Northeast  Level Estimated
08:40AM 19.4363 -99.0721 43° Northeast  Level Estimated
08:41AM 19.4363 -99.0721 43° Northeast  Level Estimated
08:42AM 19.4363 -99.0721 43° Northeast  Level Estimated
08:43AM 19.4363 -99.0721 43° Northeast  Level Estimated
08:44AM 19.4363 -99.0721 43° Northeast  Level Estimated
08:45AM 19.4363 -99.0721 43° Northeast  Level Estimated
08:46AM 19.4363 -99.0721 43° Northeast  Level Estimated
08:47AM 19.4363 -99.0721 43° Northeast  Level Estimated
08:48AM 19.4363 -99.0721 43° Northeast  Level Estimated
08:49AM 19.4363 -99.0721 43° Northeast  Level Estimated
08:50AM 19.4363 -99.0721 43° Northeast  Level Estimated
08:51AM 19.4363 -99.0721 43° Northeast  Level Estimated
08:52AM 19.4363 -99.0721 43° Northeast  Level Estimated
08:53AM 19.4363 -99.0721 43° Northeast  Level Estimated